Sant Julià de Vilatorta





Hora UTC 14:10
Temperatura 21.7 ºC
Humitat 45.5 %
Pressió 1016.7 hPa
Pluja 0.2 mm
Velocitat vent 7.8 km/h
Direcció vent NW
Radiació solar 625.5 W/m²

Dades diàries 2021-09-19



Hora UTC (hivern +1h; estiu +2h)
Temperatura (ºC) Humitat (%) Pressió (hPa) Velocitat vent (km/h) Precipitació (mm) Radiació solar (W/m²)
Hora UTC Aire Humitat Pressió Vel. Dir. Vel. Max Dir. Intent. màx 5 min. Rad. Sol.
00:05 16.0 98.2 1014.4 2.3 WNW 2.3 WNW 0.0 0.0
00:10 16.0 98.2 1014.5 1.4 W 2.6 WNW 0.0 0.0
00:15 15.9 98.2 1014.5 1.5 SW 3.0 WNW 0.0 0.0
00:20 15.9 98.3 1014.6 2.8 NW 4.1 NW 0.1 0.0
00:25 15.9 98.3 1014.6 1.2 SW 5.1 NW 0.0 0.1
00:30 15.9 98.3 1014.7 0.6 SSW 1.4 SW 0.0 0.2
00:35 15.9 98.3 1014.8 1.4 S 3.0 SSW 0.0 0.0
00:40 15.8 98.3 1014.7 1.4 S 2.6 S 0.0 0.0
00:45 15.8 98.4 1014.7 2.4 S 5.2 SSE 0.0 0.0
00:50 15.8 98.4 1014.7 1.8 SSE 4.5 S 0.0 0.0
00:55 15.8 98.4 1014.7 2.8 SSE 4.8 SSE 0.0 0.0
01:00 15.7 98.4 1014.7 6.1 S 13.8 SSW 0.0 0.0
01:05 15.4 98.0 1014.6 7.0 S 14.2 SSW 0.0 0.0
01:10 15.4 97.0 1014.5 6.5 S 10.3 SSW 0.0 0.0
01:15 15.3 95.9 1014.5 5.4 SSE 8.1 SSE 0.0 0.0
01:20 15.1 95.6 1014.5 3.1 SE 8.2 S 0.0 0.0
01:25 14.9 95.6 1014.5 1.8 E 3.2 ENE 0.0 0.0
01:30 14.7 95.7 1014.5 0.7 ESE 2.5 ESE 0.0 0.0
01:35 14.5 96.0 1014.6 0.6 NE 1.6 E 0.0 0.0
01:40 14.3 96.2 1014.6 1.1 NNE 2.0 ENE 0.0 0.0
01:45 14.1 96.5 1014.7 2.9 ENE 4.9 ENE 0.0 0.0
01:50 14.1 96.8 1014.7 2.6 E 5.6 E 0.0 0.0
01:55 14.0 97.0 1014.7 1.0 E 5.8 SW 0.0 0.0
02:00 13.9 97.1 1014.7 1.9 NE 4.0 ENE 0.0 0.0
02:05 13.8 97.2 1014.7 3.0 ESE 4.9 E 0.0 0.0
02:10 13.7 97.3 1014.7 2.2 ESE 5.1 E 0.0 0.0
02:15 13.7 97.4 1014.7 3.3 ESE 5.1 ESE 0.0 0.0
02:20 13.8 97.7 1014.6 2.2 SSE 4.1 SE 0.0 0.0
02:25 13.6 97.6 1014.7 1.7 SSE 3.0 SSW 0.0 0.0
02:30 13.5 97.6 1014.7 3.4 SSE 5.5 SE 0.0 0.0
02:35 13.6 97.8 1014.7 3.7 SSE 8.4 ESE 0.0 0.0
02:40 13.4 97.7 1014.8 3.5 WNW 6.2 N 0.0 0.0
02:45 13.3 97.5 1014.8 4.7 NNE 6.2 N 0.0 0.0
02:50 13.2 97.5 1014.7 3.5 NE 6.2 NNE 0.0 0.0
02:55 13.1 97.6 1014.8 1.4 SSE 3.6 E 0.0 0.0
03:00 13.1 97.7 1014.8 2.3 S 6.3 SE 0.0 0.0
03:05 13.1 97.9 1014.9 0.9 SE 3.5 ENE 0.0 0.0
03:10 13.0 97.8 1014.9 5.0 NE 9.3 NNE 0.0 0.0
03:15 12.9 97.9 1015.0 4.0 NNE 8.2 N 0.0 0.0
03:20 12.9 98.0 1015.1 3.3 S 5.3 S 0.0 0.0
03:25 12.9 98.0 1015.1 3.1 ENE 5.1 E 0.0 0.0
03:30 13.0 98.0 1015.1 2.8 E 4.6 E 0.0 0.0
03:35 13.0 98.1 1015.1 3.4 E 6.6 E 0.0 0.0
03:40 13.1 98.1 1015.1 3.6 ESE 6.7 ENE 0.0 0.0
03:45 13.1 98.2 1015.1 2.3 S 4.8 SSE 0.0 0.0
03:50 13.2 98.2 1015.1 1.6 S 4.1 SE 0.0 0.0
03:55 13.2 98.1 1015.1 1.7 WNW 4.5 N 0.0 0.0
04:00 13.1 98.0 1015.1 4.2 N 5.1 N 0.0 0.0
04:05 12.9 97.9 1015.0 4.0 NNW 6.3 NNW 0.0 0.0
04:10 12.7 97.8 1015.1 1.2 SSW 2.4 WNW 0.0 0.0
04:15 12.6 97.8 1015.2 1.4 NW 3.3 NNW 0.0 0.0
04:20 12.2 97.5 1015.2 2.3 N 6.9 NNE 0.0 0.0
04:25 12.0 97.6 1015.3 1.0 NNW 5.7 WNW 0.0 0.0
04:30 11.9 97.6 1015.4 0.7 SSW 1.6 SSE 0.1 0.0
04:35 11.9 97.8 1015.4 1.7 SSW 4.3 WNW 0.0 0.0
04:40 11.8 97.8 1015.4 0.9 NNW 2.8 NNE 0.0 0.0
04:45 11.6 97.6 1015.4 1.4 E 2.7 SSE 0.0 0.0
04:50 11.6 97.8 1015.5 2.0 S 3.8 SSW 0.0 0.0
04:55 11.6 97.9 1015.5 1.5 S 3.1 WSW 0.0 0.0
05:00 11.5 97.8 1015.6 2.7 SSE 3.9 SSE 0.0 0.0
05:05 11.4 97.9 1015.7 3.0 SE 5.0 SSE 0.0 0.0
05:10 11.2 97.8 1015.8 3.2 E 4.6 ENE 0.0 0.0
05:15 11.2 97.9 1015.8 3.1 SE 6.2 E 0.0 0.0
05:20 11.2 98.0 1015.8 2.7 SSE 4.4 SE 0.0 0.0
05:25 11.1 98.0 1015.9 5.1 SSE 7.5 SE 0.0 0.0
05:30 11.0 98.0 1015.9 2.0 SE 5.6 SE 0.0 0.2
05:35 10.9 97.9 1015.9 1.8 SSE 3.5 SE 0.0 1.6
05:40 10.8 98.0 1016.1 2.2 SE 4.2 SE 0.0 3.4
05:45 10.7 97.9 1016.1 1.9 SE 3.8 E 0.0 5.9
05:50 10.6 98.0 1016.2 2.4 SE 4.2 SE 0.0 8.6
05:55 10.6 98.1 1016.2 2.5 SSE 5.4 SE 0.0 11.0
06:00 10.5 98.0 1016.3 1.3 SE 3.3 S 0.0 13.7
06:05 10.4 98.0 1016.4 2.0 SE 3.4 E 0.0 16.7
06:10 10.4 98.1 1016.4 1.9 ESE 3.1 SE 0.0 19.5
06:15 10.3 98.1 1016.5 1.5 SE 2.8 E 0.0 22.0
06:20 10.4 98.2 1016.6 1.6 ESE 2.9 ESE 0.0 24.2
06:25 10.4 98.2 1016.7 1.2 SSE 2.6 S 0.0 26.8
06:30 10.5 98.3 1016.7 3.3 SSE 5.2 SSE 0.0 29.2
06:35 10.5 98.3 1016.7 3.2 SSE 7.3 SE 0.0 30.8
06:40 10.7 98.3 1016.7 2.2 SSE 5.5 SSE 0.0 32.7
06:45 10.8 98.4 1016.7 3.2 SE 6.6 SE 0.0 34.5
06:50 10.9 98.3 1016.7 4.3 SE 8.7 SSE 0.0 36.4
06:55 11.0 98.0 1016.7 3.7 SE 6.0 SSE 0.0 38.0
07:00 11.2 97.9 1016.7 3.9 SE 5.6 SSE 0.0 40.1
07:05 11.2 97.6 1016.8 3.6 SSE 5.6 SE 0.0 113.2
07:10 11.3 97.5 1016.9 1.9 ESE 4.0 SE 0.0 244.7
07:15 11.4 97.5 1016.9 1.7 NE 4.7 W 0.0 204.3
07:20 11.8 97.2 1017.0 1.6 N 4.5 WSW 0.0 182.8
07:25 12.2 96.0 1017.0 1.8 SW 4.4 WSW 0.0 157.9
07:30 12.2 94.0 1017.0 1.4 WNW 3.7 W 0.0 220.1
07:35 12.3 91.7 1017.0 1.3 E 2.8 NE 0.0 319.6
07:40 12.8 89.8 1017.0 2.1 SSW 5.6 S 0.0 342.7
07:45 13.1 88.1 1017.1 2.2 W 4.2 W 0.0 422.0
07:50 13.3 88.0 1017.1 2.7 W 5.1 NW 0.0 266.4
07:55 13.4 87.9 1017.2 2.6 SW 4.5 SSW 0.0 210.8
08:00 13.4 86.8 1017.2 0.8 NNE 2.1 N 0.0 185.6
08:05 13.6 86.6 1017.2 3.0 WNW 5.0 WSW 0.0 318.3
08:10 13.7 86.9 1017.3 2.7 WSW 5.5 WSW 0.0 331.9
08:15 13.9 86.7 1017.4 3.7 NNW 6.8 N 0.0 313.4
08:20 13.8 86.0 1017.4 2.3 NNW 5.4 NNW 0.0 233.8
08:25 13.8 87.1 1017.5 2.6 WSW 6.8 NW 0.0 245.0
08:30 14.0 86.5 1017.5 4.2 N 6.3 NNW 0.0 283.0
08:35 14.0 87.1 1017.5 3.6 NNW 9.0 NW 0.0 310.4
08:40 14.0 86.3 1017.6 5.5 N 9.9 N 0.0 331.4
08:45 14.0 86.9 1017.7 2.5 NE 5.5 ESE 0.0 213.2
08:50 14.2 86.5 1017.8 2.4 N 4.7 NE 0.0 479.1
08:55 14.4 84.9 1017.8 2.8 S 5.2 S 0.0 386.3
09:00 14.6 84.4 1017.7 2.3 E 4.7 N 0.0 315.4
09:05 14.9 84.2 1017.7 1.6 E 3.8 S 0.0 319.4
09:10 15.1 84.6 1017.8 2.9 WSW 6.8 W 0.0 265.4
09:15 14.9 83.1 1017.8 4.6 SSW 7.1 SSW 0.0 235.7
09:20 14.6 83.0 1017.9 4.3 S 6.5 S 0.0 476.0
09:25 15.0 82.2 1017.9 3.7 SSW 5.9 SSW 0.0 693.9
09:30 15.4 81.5 1017.9 2.5 SW 6.7 WNW 0.0 719.7
09:35 16.1 80.2 1018.0 5.5 NW 11.2 WNW 0.0 762.6
09:40 16.4 79.1 1017.9 5.7 NNW 10.0 N 0.0 774.6
09:45 16.2 77.9 1017.9 6.1 N 8.9 NNW 0.0 778.7
09:50 16.1 79.0 1017.9 5.9 NW 9.8 NW 0.0 794.7
09:55 16.2 78.6 1017.9 6.2 NNW 11.2 NW 0.0 636.0
10:00 16.2 78.4 1017.9 4.2 NW 9.0 NW 0.0 618.1
10:05 16.5 77.3 1017.9 3.0 NW 5.4 W 0.0 602.2
10:10 16.6 75.8 1017.9 4.1 NW 11.7 NW 0.0 729.3
10:15 16.9 75.2 1017.8 4.6 WNW 9.4 WNW 0.0 734.7
10:20 17.1 72.4 1017.8 5.2 SW 8.0 SSW 0.0 750.0
10:25 17.0 74.4 1017.8 5.7 NNW 9.5 NW 0.0 740.0
10:30 17.1 72.9 1017.7 5.6 NW 10.2 WNW 0.0 744.7
10:35 17.1 72.5 1017.7 3.2 W 7.3 W 0.0 745.2
10:40 17.5 71.3 1017.7 3.6 NW 7.9 NW 0.0 753.5
10:45 17.8 70.1 1017.6 4.0 SW 6.9 SSW 0.0 758.7
10:50 17.8 70.2 1017.6 3.5 SW 7.0 S 0.0 763.7
10:55 18.3 69.4 1017.6 2.7 W 7.4 WNW 0.0 768.8
11:00 18.6 66.2 1017.6 3.9 NNW 7.5 N 0.0 771.8
11:05 18.3 66.6 1017.5 6.0 NW 12.9 WNW 0.0 783.4
11:10 18.2 64.3 1017.6 5.1 SSW 8.5 SSW 0.0 783.6
11:15 18.2 64.8 1017.6 4.4 WNW 9.1 WNW 0.0 786.8
11:20 18.5 65.8 1017.5 4.8 WNW 10.5 WNW 0.0 787.1
11:25 18.8 66.1 1017.5 5.5 NW 10.5 NNW 0.0 790.3
11:30 18.7 66.9 1017.5 4.5 NW 10.7 NW 0.0 787.5
11:35 19.0 65.1 1017.5 4.1 W 9.0 NW 0.0 790.9
11:40 19.1 63.7 1017.5 3.2 W 6.8 WSW 0.0 792.8
11:45 19.2 63.5 1017.4 2.8 NW 7.1 SW 0.0 792.4
11:50 19.4 64.4 1017.4 5.5 W 10.6 WNW 0.0 796.2
11:55 19.6 62.2 1017.4 2.8 WNW 5.9 NW 0.0 795.7
12:00 19.8 62.3 1017.4 4.4 WNW 10.6 WNW 0.0 790.8
12:05 19.9 59.2 1017.4 5.1 WSW 12.1 WNW 0.0 793.9
12:10 19.8 59.5 1017.4 6.3 NNW 12.9 NW 0.0 791.4
12:15 19.8 59.1 1017.3 5.2 NNW 9.7 NW 0.0 793.8
12:20 19.9 58.2 1017.3 5.6 NNW 10.9 NNW 0.0 787.1
12:25 20.1 58.9 1017.3 4.7 W 11.7 WNW 0.0 779.3
12:30 20.6 56.1 1017.3 2.8 ENE 5.6 NNW 0.0 776.0
12:35 20.5 57.9 1017.2 5.8 NNW 12.1 NNW 0.0 773.6
12:40 20.4 56.8 1017.1 7.1 NW 12.7 WNW 0.0 765.2
12:45 20.5 55.2 1017.1 4.6 NNW 11.5 WNW 0.0 767.4
12:50 21.0 53.9 1017.1 3.9 NW 8.7 NW 0.0 760.8
12:55 21.1 53.9 1017.1 3.4 W 8.2 S 0.0 754.4
13:00 21.2 51.2 1017.1 5.7 SSW 10.9 SSW 0.0 743.8
13:05 20.9 50.9 1017.1 5.6 SSW 10.4 SE 0.0 736.2
13:10 21.1 52.6 1017.0 4.3 W 10.4 W 0.0 734.6
13:15 21.6 49.4 1017.0 5.2 WSW 12.5 W 0.0 730.9
13:20 21.2 50.0 1017.0 6.8 SSW 14.6 S 0.0 724.5
13:25 21.2 51.9 1016.9 3.5 S 9.6 SSW 0.0 711.3
13:30 21.6 51.6 1016.9 5.0 SW 10.7 SSW 0.0 708.2
13:35 21.7 48.4 1016.8 6.5 W 11.8 NNW 0.0 694.6
13:40 21.5 48.1 1016.8 5.7 NW 11.2 WNW 0.0 686.9
13:45 21.5 47.7 1016.8 4.8 W 9.9 WNW 0.0 673.7
13:50 21.6 45.8 1016.8 6.1 N 12.7 NNE 0.0 663.6
13:55 21.2 47.0 1016.7 5.1 NNW 13.2 NW 0.0 659.6
14:00 21.5 46.9 1016.7 7.7 NW 12.6 WNW 0.0 650.9
14:05 21.5 46.2 1016.7 5.2 WSW 10.5 NW 0.0 639.5
14:10 21.7 45.5 1016.7 7.8 NW 14.4 WNW 0.0 625.5
Màxima 21.8 98.4 1018.0 7.8 NW 14.6 S 0.1 796.2
Mínima 10.2 45.5 1014.4
Total 0.2